Singleton, Texas
Current Conditions -  °F | °C
As of 12:53 AM on Sunday 26 Oct 2014 (Local Time) from KUTS Reporting Station
Clear Clear  
Wind Chill: 67°   Ceiling: Unl
Heat Index: 67°   Visibility: 10mi
Dew Point: 59°   Wind: 7mph
Humidity: 76%   Direction: 200°SSW
Pressure: 30.08"   Gusts: NA
Location:  30.7529°N, 95.9206°W
Report Text: KUTS 260553Z AUTO 20006KT 10SM CLR 19/15 A3008 RMK AO2 SLP182 T01940150 10256 20194 403060139 58007
Loading
Personal Weather Stations






























Interactive Weather Map
Tropical Storm Tracking
New forecast layout! Learn more

10-Day Weather Forecast

Advertisements
Track Severe Weather on mobile